createdAt,value
2017-09-04T00:00:30.363Z,11.3
2017-09-04T00:01:29.685Z,11.3
2017-09-04T00:02:28.748Z,11.3
2017-09-04T00:03:28.059Z,11.3
2017-09-04T00:05:26.266Z,11.3
2017-09-04T00:06:25.573Z,11.3
2017-09-04T00:07:24.877Z,11.3
2017-09-04T00:08:23.819Z,11.3
2017-09-04T00:10:22.275Z,11.2
2017-09-04T00:11:21.703Z,11.2
2017-09-04T00:12:20.516Z,11.2
2017-09-04T00:14:19.351Z,11.1
2017-09-04T00:16:17.559Z,11.1
2017-09-04T00:17:16.501Z,11.1
2017-09-04T00:18:15.931Z,11.1
2017-09-04T00:19:15.117Z,11.1
2017-09-04T00:20:14.425Z,11.1
2017-09-04T00:20:44.562Z,11.1
2017-09-04T00:21:15.188Z,11.1
2017-09-04T00:21:45.569Z,11.1
2017-09-04T00:22:15.818Z,11.2
2017-09-04T00:22:46.438Z,11.2
2017-09-04T00:24:10.785Z,11.2
2017-09-04T00:25:09.969Z,11.2
2017-09-04T00:26:09.415Z,11.2
2017-09-04T00:27:08.350Z,11.2
2017-09-04T00:28:07.782Z,11.2
2017-09-04T00:29:06.731Z,11.2
2017-09-04T00:30:05.913Z,11.2
2017-09-04T00:31:05.235Z,11.2
2017-09-04T00:32:04.294Z,11.2
2017-09-04T00:33:03.612Z,11.2
2017-09-04T00:34:03.178Z,11.2
2017-09-04T00:35:01.861Z,11.2
2017-09-04T00:36:01.316Z,11.2
2017-09-04T00:37:00.380Z,11.2
2017-09-04T00:37:59.821Z,11.2
2017-09-04T00:39:57.772Z,11.2
2017-09-04T00:40:56.840Z,11.2
2017-09-04T00:41:56.521Z,11.2
2017-09-04T00:42:55.334Z,11.2
2017-09-04T00:43:54.894Z,11.2
2017-09-04T00:44:53.701Z,11.2
2017-09-04T00:45:53.196Z,11.2
2017-09-04T00:46:52.147Z,11.2
2017-09-04T00:47:51.332Z,11.2
2017-09-04T00:48:50.518Z,11.2
2017-09-04T00:49:49.575Z,11.2
2017-09-04T00:50:49.134Z,11.2
2017-09-04T00:51:48.182Z,11.2
2017-09-04T00:52:18.425Z,11.2
2017-09-04T00:52:48.927Z,11.2
2017-09-04T00:53:46.611Z,11.2
2017-09-04T00:54:45.577Z,11.2
2017-09-04T00:56:44.158Z,11.2
2017-09-04T00:57:43.597Z,11.2
2017-09-04T00:58:42.403Z,11.2
2017-09-04T00:59:41.599Z,11.1
2017-09-04T01:00:40.777Z,11.2
2017-09-04T01:01:40.097Z,11.1
2017-09-04T01:02:38.902Z,11.1
2017-09-04T01:03:38.479Z,11.1
2017-09-04T01:05:36.570Z,11.1
2017-09-04T01:06:36.029Z,11.1
2017-09-04T01:07:34.963Z,11.1
2017-09-04T01:09:33.544Z,11.1
2017-09-04T01:10:32.853Z,11.1
2017-09-04T01:11:31.912Z,11.1
2017-09-04T01:12:31.212Z,11
2017-09-04T01:13:30.416Z,11
2017-09-04T01:14:29.360Z,11.1
2017-09-04T01:15:28.316Z,11
2017-09-04T01:16:27.624Z,11
2017-09-04T01:18:26.327Z,11
2017-09-04T01:19:25.139Z,11
2017-09-04T01:20:24.212Z,11
2017-09-04T01:21:23.645Z,11
2017-09-04T01:22:22.970Z,11
2017-09-04T01:23:21.660Z,11
2017-09-04T01:24:21.465Z,11
2017-09-04T01:26:19.546Z,11
2017-09-04T01:27:18.990Z,11
2017-09-04T01:28:17.558Z,11
2017-09-04T01:29:17.240Z,10.9
2017-09-04T01:30:16.173Z,10.9
2017-09-04T01:31:15.356Z,10.9
2017-09-04T01:32:14.668Z,10.9
2017-09-04T01:33:13.597Z,10.9
2017-09-04T01:34:13.161Z,10.9
2017-09-04T01:35:12.094Z,10.9
2017-09-04T01:36:11.408Z,10.9
2017-09-04T01:37:10.721Z,10.9
2017-09-04T01:38:09.667Z,10.9
2017-09-04T01:39:08.980Z,10.9
2017-09-04T01:41:07.183Z,10.9
2017-09-04T01:43:05.378Z,10.9
2017-09-04T01:44:04.573Z,10.9
2017-09-04T01:45:03.891Z,10.9
2017-09-04T01:46:03.199Z,10.9
2017-09-04T01:46:33.836Z,10.9
2017-09-04T01:47:04.212Z,10.9
2017-09-04T01:47:34.451Z,10.9
2017-09-04T01:48:04.825Z,10.9
2017-09-04T01:49:00.737Z,10.9
2017-09-04T01:49:59.940Z,10.9
2017-09-04T01:50:59.171Z,10.8
2017-09-04T01:51:58.230Z,10.8
2017-09-04T01:52:57.035Z,10.8
2017-09-04T01:53:56.396Z,10.8
2017-09-04T01:54:55.715Z,10.8
2017-09-04T01:56:54.041Z,10.8
2017-09-04T01:57:53.485Z,10.8
2017-09-04T01:58:52.299Z,10.8
2017-09-04T01:59:51.741Z,10.8
2017-09-04T02:01:49.813Z,10.8
2017-09-04T02:02:49.130Z,10.8
2017-09-04T02:03:48.193Z,10.8
2017-09-04T02:04:47.636Z,10.8
2017-09-04T02:05:46.607Z,10.8
2017-09-04T02:06:45.798Z,10.8
2017-09-04T02:09:43.380Z,10.7
2017-09-04T02:10:42.691Z,10.7
2017-09-04T02:11:41.753Z,10.7
2017-09-04T02:12:41.074Z,10.7
2017-09-04T02:13:40.054Z,10.8
2017-09-04T02:14:39.481Z,10.7
2017-09-04T02:15:38.424Z,10.8
2017-09-04T02:16:37.748Z,10.7
2017-09-04T02:17:36.819Z,10.8
2017-09-04T02:18:36.258Z,10.7
2017-09-04T02:19:35.569Z,10.8
2017-09-04T02:20:34.134Z,10.7
2017-09-04T02:21:33.461Z,10.8
2017-09-04T02:22:32.531Z,10.7
2017-09-04T02:23:32.102Z,10.7
2017-09-04T02:25:30.413Z,10.7
2017-09-04T02:26:29.601Z,10.7
2017-09-04T02:27:00.110Z,10.7
2017-09-04T02:29:26.737Z,10.7
2017-09-04T02:30:25.921Z,10.7
2017-09-04T02:31:25.357Z,10.6
2017-09-04T02:33:23.674Z,10.6
2017-09-04T02:34:22.602Z,10.6
2017-09-04T02:35:21.933Z,10.5
2017-09-04T02:37:20.144Z,10.6
2017-09-04T02:37:50.763Z,10.6
2017-09-04T02:38:21.509Z,10.6
2017-09-04T02:38:51.757Z,10.6
2017-09-04T02:40:17.988Z,10.5
2017-09-04T02:41:17.035Z,10.5
2017-09-04T02:42:16.361Z,10.5
2017-09-04T02:43:15.168Z,10.5
2017-09-04T02:44:14.728Z,10.5
2017-09-04T02:45:13.534Z,10.5
2017-09-04T02:46:12.713Z,10.5
2017-09-04T02:47:12.272Z,10.5
2017-09-04T02:48:11.585Z,10.5
2017-09-04T02:49:10.261Z,10.5
2017-09-04T02:50:09.560Z,10.5
2017-09-04T02:51:08.872Z,10.5
2017-09-04T02:52:07.825Z,10.5
2017-09-04T02:53:07.049Z,10.5
2017-09-04T02:54:06.488Z,10.5
2017-09-04T02:55:05.293Z,10.5
2017-09-04T02:56:04.473Z,10.5
2017-09-04T02:57:03.667Z,10.5
2017-09-04T02:58:02.980Z,10.5
2017-09-04T02:59:02.149Z,10.5
2017-09-04T03:00:01.324Z,10.5
2017-09-04T03:01:00.659Z,10.5
2017-09-04T03:01:59.713Z,10.5
2017-09-04T03:02:58.884Z,10.5
2017-09-04T03:03:58.324Z,10.5
2017-09-04T03:04:57.339Z,10.5
2017-09-04T03:05:56.539Z,10.5
2017-09-04T03:06:55.722Z,10.4
2017-09-04T03:07:54.648Z,10.4
2017-09-04T03:08:54.078Z,10.4
2017-09-04T03:09:52.754Z,10.4
2017-09-04T03:10:52.562Z,10.4
2017-09-04T03:11:51.488Z,10.4
2017-09-04T03:12:50.548Z,10.4
2017-09-04T03:13:49.992Z,10.4
2017-09-04T03:14:48.791Z,10.4
2017-09-04T03:15:48.224Z,10.4
2017-09-04T03:18:45.815Z,10.3
2017-09-04T03:19:44.753Z,10.3
2017-09-04T03:20:43.942Z,10.4
2017-09-04T03:23:41.402Z,10.3
2017-09-04T03:25:39.835Z,10.3
2017-09-04T03:26:38.890Z,10.3
2017-09-04T03:27:38.322Z,10.3
2017-09-04T03:28:37.503Z,10.3
2017-09-04T03:29:36.814Z,10.3
2017-09-04T03:30:35.622Z,10.2
2017-09-04T03:31:34.679Z,10.2
2017-09-04T03:33:33.514Z,10.3
2017-09-04T03:34:32.578Z,10.3
2017-09-04T03:35:31.764Z,10.3
2017-09-04T03:37:30.117Z,10.2
2017-09-04T03:38:28.926Z,10.2
2017-09-04T03:39:28.366Z,10.2
2017-09-04T03:40:27.663Z,10.2
2017-09-04T03:41:26.855Z,10.2
2017-09-04T03:42:25.790Z,10.1
2017-09-04T03:43:24.845Z,10.1
2017-09-04T03:44:23.907Z,10.1
2017-09-04T03:45:23.087Z,10.1
2017-09-04T03:46:22.393Z,10.1
2017-09-04T03:47:21.571Z,10.1
2017-09-04T03:48:20.738Z,10.1
2017-09-04T03:49:20.284Z,10.1
2017-09-04T03:50:18.968Z,10.1
2017-09-04T03:51:18.147Z,10.1
2017-09-04T03:52:17.584Z,10.1
2017-09-04T03:53:16.523Z,10.1
2017-09-04T03:55:15.102Z,10.1
2017-09-04T03:56:13.908Z,10.1
2017-09-04T03:57:13.088Z,10.1
2017-09-04T03:58:12.411Z,10.1
2017-09-04T04:00:10.726Z,10.1
2017-09-04T04:01:10.152Z,10.1
2017-09-04T04:02:08.952Z,10.1
2017-09-04T04:05:06.546Z,10.1
2017-09-04T04:06:05.857Z,10.1
2017-09-04T04:09:03.329Z,10
2017-09-04T04:13:00.177Z,10
2017-09-04T04:13:58.988Z,10
2017-09-04T04:14:58.169Z,10
2017-09-04T04:15:57.604Z,10
2017-09-04T04:17:55.547Z,9.9
2017-09-04T04:18:54.853Z,9.9
2017-09-04T04:19:54.030Z,9.9
2017-09-04T04:21:52.217Z,9.9
2017-09-04T04:22:51.403Z,9.9
2017-09-04T04:24:49.744Z,9.8
2017-09-04T04:25:48.923Z,9.8
2017-09-04T04:26:48.367Z,9.8
2017-09-04T04:27:47.418Z,9.8
2017-09-04T04:28:46.621Z,9.8
2017-09-04T04:29:45.553Z,9.8
2017-09-04T04:30:45.008Z,9.8
2017-09-04T04:31:44.446Z,9.8
2017-09-04T04:32:43.243Z,9.8
2017-09-04T04:33:42.303Z,9.8
2017-09-04T04:34:41.612Z,9.8
2017-09-04T04:35:40.917Z,9.8
2017-09-04T04:36:39.971Z,9.8
2017-09-04T04:37:39.022Z,9.8
2017-09-04T04:38:38.212Z,9.7
2017-09-04T04:39:37.149Z,9.7
2017-09-04T04:40:36.207Z,9.7
2017-09-04T04:41:35.635Z,9.7
2017-09-04T04:42:34.948Z,9.7
2017-09-04T04:44:33.143Z,9.7
2017-09-04T04:45:32.010Z,9.7
2017-09-04T04:46:31.204Z,9.7
2017-09-04T04:47:30.644Z,9.7
2017-09-04T04:48:29.948Z,9.7
2017-09-04T04:49:29.001Z,9.7
2017-09-04T04:50:28.301Z,9.7
2017-09-04T04:51:27.232Z,9.7
2017-09-04T04:52:26.416Z,9.7
2017-09-04T04:53:25.847Z,9.7
2017-09-04T04:54:24.538Z,9.7
2017-09-04T04:55:24.108Z,9.7
2017-09-04T04:56:23.032Z,9.7
2017-09-04T04:57:22.213Z,9.7
2017-09-04T04:58:21.641Z,9.7
2017-09-04T04:59:20.448Z,9.7
2017-09-04T05:00:19.637Z,9.7
2017-09-04T05:01:19.067Z,9.7
2017-09-04T05:02:18.250Z,9.7
2017-09-04T05:03:17.437Z,9.8
2017-09-04T05:04:16.373Z,9.8
2017-09-04T05:05:15.553Z,9.8
2017-09-04T05:07:13.741Z,9.8
2017-09-04T05:08:12.925Z,9.8
2017-09-04T05:09:12.103Z,9.8
2017-09-04T05:10:11.410Z,9.8
2017-09-04T05:12:09.979Z,9.8
2017-09-04T05:13:08.927Z,9.8
2017-09-04T05:14:07.613Z,9.8
2017-09-04T05:16:06.174Z,9.8
2017-09-04T05:17:05.236Z,9.8
2017-09-04T05:18:04.287Z,9.8
2017-09-04T05:19:03.712Z,9.8
2017-09-04T05:20:03.019Z,9.8
2017-09-04T05:21:02.198Z,9.8
2017-09-04T05:22:01.264Z,9.8
2017-09-04T05:23:00.556Z,9.8
2017-09-04T05:24:58.634Z,9.8
2017-09-04T05:25:57.564Z,9.8
2017-09-04T05:26:57.247Z,9.8
2017-09-04T05:27:56.192Z,9.9
2017-09-04T05:28:55.380Z,9.9
2017-09-04T05:29:54.682Z,9.9
2017-09-04T05:30:53.611Z,9.9
2017-09-04T05:31:53.067Z,9.9
2017-09-04T05:32:51.903Z,9.9
2017-09-04T05:33:51.322Z,9.9
2017-09-04T05:34:50.377Z,9.9
2017-09-04T05:35:49.436Z,9.9
2017-09-04T05:36:48.489Z,9.9
2017-09-04T05:37:47.546Z,9.9
2017-09-04T05:38:46.870Z,9.9
2017-09-04T05:39:45.917Z,10
2017-09-04T05:40:45.102Z,10
2017-09-04T05:41:44.656Z,10
2017-09-04T05:42:43.449Z,10
2017-09-04T05:43:42.507Z,10
2017-09-04T05:44:41.560Z,10
2017-09-04T05:45:41.372Z,10.1
2017-09-04T05:46:40.433Z,10.1
2017-09-04T05:47:39.486Z,10.1
2017-09-04T05:48:38.795Z,10.1
2017-09-04T05:49:37.601Z,10.1
2017-09-04T05:50:36.786Z,10.1
2017-09-04T05:51:36.351Z,10.1
2017-09-04T05:52:35.022Z,10.2
2017-09-04T05:53:34.076Z,10.2
2017-09-04T05:54:33.507Z,10.2
2017-09-04T05:55:32.686Z,10.3
2017-09-04T05:56:32.006Z,10.3
2017-09-04T05:57:30.941Z,10.3
2017-09-04T05:58:30.260Z,10.4
2017-09-04T05:59:29.079Z,10.4
2017-09-04T06:00:28.517Z,10.4
2017-09-04T06:01:27.694Z,10.5
2017-09-04T06:02:26.638Z,10.5
2017-09-04T06:03:26.067Z,10.5
2017-09-04T06:05:24.149Z,10.6
2017-09-04T06:06:23.455Z,10.6
2017-09-04T06:07:22.637Z,10.7
2017-09-04T06:08:21.819Z,10.7
2017-09-04T06:09:20.871Z,10.7
2017-09-04T06:10:19.918Z,10.8
2017-09-04T06:11:19.235Z,10.8
2017-09-04T06:12:18.676Z,10.8
2017-09-04T06:13:17.360Z,10.8
2017-09-04T06:14:16.561Z,10.8
2017-09-04T06:15:15.989Z,10.8
2017-09-04T06:16:15.043Z,10.8
2017-09-04T06:17:14.351Z,10.9
2017-09-04T06:18:13.166Z,10.9
2017-09-04T06:19:12.598Z,11
2017-09-04T06:20:11.785Z,11
2017-09-04T06:21:10.719Z,11
2017-09-04T06:22:09.782Z,11
2017-09-04T06:23:09.088Z,11.1
2017-09-04T06:24:08.395Z,11.1
2017-09-04T06:25:07.714Z,11.1
2017-09-04T06:25:37.840Z,11.1
2017-09-04T06:26:08.072Z,11.1
2017-09-04T06:27:05.992Z,11.1
2017-09-04T06:28:05.047Z,11.2
2017-09-04T06:29:04.486Z,11.2
2017-09-04T06:30:03.294Z,11.3
2017-09-04T06:31:02.472Z,11.3
2017-09-04T06:32:01.658Z,11.4
2017-09-04T06:33:00.713Z,11.4
2017-09-04T06:34:00.025Z,11.5
2017-09-04T06:34:59.338Z,11.5
2017-09-04T06:35:58.147Z,11.5
2017-09-04T06:36:57.329Z,11.6
2017-09-04T06:37:56.885Z,11.6
2017-09-04T06:38:55.940Z,11.6
2017-09-04T06:39:55.005Z,11.6
2017-09-04T06:40:54.182Z,11.6
2017-09-04T06:41:53.500Z,11.7
2017-09-04T06:42:52.554Z,11.8
2017-09-04T06:43:51.607Z,11.7
2017-09-04T06:44:22.365Z,11.7
2017-09-04T06:45:50.368Z,11.7
2017-09-04T06:46:49.173Z,11.8
2017-09-04T06:47:48.475Z,11.8
2017-09-04T06:48:47.899Z,11.9
2017-09-04T06:49:46.690Z,11.9
2017-09-04T06:50:45.989Z,11.9
2017-09-04T06:51:45.426Z,12
2017-09-04T06:52:44.365Z,12
2017-09-04T06:53:43.547Z,12
2017-09-04T06:54:42.610Z,12
2017-09-04T06:55:42.037Z,12.1
2017-09-04T06:56:41.462Z,12.1
2017-09-04T06:57:40.517Z,12.2
2017-09-04T06:58:39.712Z,12.2
2017-09-04T06:59:38.542Z,12.2
2017-09-04T07:00:37.845Z,12.3
2017-09-04T07:01:37.161Z,12.3
2017-09-04T07:02:36.354Z,12.4
2017-09-04T07:03:35.536Z,12.4
2017-09-04T07:04:34.730Z,12.4
2017-09-04T07:05:33.550Z,12.4
2017-09-04T07:06:32.729Z,12.4
2017-09-04T07:07:32.539Z,12.4
2017-09-04T07:08:31.216Z,12.4
2017-09-04T07:10:29.545Z,12.5
2017-09-04T07:11:28.981Z,12.5
2017-09-04T07:12:28.288Z,12.6
2017-09-04T07:13:27.224Z,12.7
2017-09-04T07:14:26.790Z,12.7
2017-09-04T07:15:25.461Z,12.7
2017-09-04T07:16:24.645Z,12.8
2017-09-04T07:17:23.829Z,12.8
2017-09-04T07:18:23.130Z,12.8
2017-09-04T07:19:22.558Z,12.9
2017-09-04T07:19:52.811Z,12.9
2017-09-04T07:20:22.926Z,12.9
2017-09-04T07:21:20.718Z,12.9
2017-09-04T07:22:20.152Z,12.9
2017-09-04T07:23:19.336Z,12.9
2017-09-04T07:24:18.645Z,12.9
2017-09-04T07:25:17.337Z,13
2017-09-04T07:26:16.895Z,13
2017-09-04T07:27:15.825Z,13
2017-09-04T07:28:15.257Z,13
2017-09-04T07:29:14.444Z,13
2017-09-04T07:30:13.500Z,13
2017-09-04T07:31:12.925Z,13
2017-09-04T07:32:11.983Z,13.1
2017-09-04T07:33:11.420Z,13.1
2017-09-04T07:34:10.364Z,13.1
2017-09-04T07:35:09.438Z,13.2
2017-09-04T07:36:09.003Z,13.2
2017-09-04T07:37:07.950Z,13.3
2017-09-04T07:38:07.132Z,13.3
2017-09-04T07:39:06.449Z,13.3
2017-09-04T07:40:05.755Z,13.3
2017-09-04T07:41:04.695Z,13.3
2017-09-04T07:42:03.747Z,13.5
2017-09-04T07:43:02.927Z,13.5
2017-09-04T07:44:02.614Z,13.6
2017-09-04T07:45:01.532Z,13.6
2017-09-04T07:46:00.853Z,13.6
2017-09-04T07:46:59.906Z,13.6
2017-09-04T07:47:59.351Z,13.7
2017-09-04T07:48:58.409Z,13.7
2017-09-04T07:49:57.604Z,13.7
2017-09-04T07:50:56.772Z,13.8
2017-09-04T07:52:55.094Z,13.9
2017-09-04T07:53:54.515Z,13.8
2017-09-04T07:54:53.326Z,13.9
2017-09-04T07:55:52.801Z,13.9
2017-09-04T07:56:52.238Z,14
2017-09-04T07:57:51.041Z,14
2017-09-04T07:58:50.478Z,14
2017-09-04T07:59:49.798Z,14
2017-09-04T08:00:48.866Z,14
2017-09-04T08:02:47.560Z,14.1
2017-09-04T08:03:46.626Z,14.1
2017-09-04T08:04:45.567Z,14.1
2017-09-04T08:05:45.007Z,14.1
2017-09-04T08:06:44.312Z,14.2
2017-09-04T08:07:43.614Z,14.3
2017-09-04T08:08:42.554Z,14.3
2017-09-04T08:09:41.996Z,14.2
2017-09-04T08:10:40.955Z,14.2
2017-09-04T08:11:40.004Z,14.4
2017-09-04T08:12:39.435Z,14.4
2017-09-04T08:13:38.623Z,14.4
2017-09-04T08:14:37.809Z,14.5
2017-09-04T08:15:37.121Z,14.4
2017-09-04T08:16:36.431Z,14.5
2017-09-04T08:17:35.872Z,14.5
2017-09-04T08:18:34.674Z,14.6
2017-09-04T08:19:33.724Z,14.6
2017-09-04T08:20:33.538Z,14.7
2017-09-04T08:21:32.589Z,14.7
2017-09-04T08:22:31.527Z,14.8
2017-09-04T08:23:30.839Z,14.8
2017-09-04T08:24:30.145Z,14.9
2017-09-04T08:25:29.201Z,15
2017-09-04T08:26:28.641Z,15
2017-09-04T08:27:27.959Z,15
2017-09-04T08:28:27.270Z,15
2017-09-04T08:29:26.325Z,15.1
2017-09-04T08:30:25.258Z,15.2
2017-09-04T08:31:24.949Z,15.2
2017-09-04T08:32:23.875Z,15.2
2017-09-04T08:33:23.061Z,15.2
2017-09-04T08:34:22.243Z,15.2
2017-09-04T08:35:21.559Z,15.2
2017-09-04T08:36:21.251Z,15.3
2017-09-04T08:37:19.932Z,15.3
2017-09-04T08:38:19.630Z,15.3
2017-09-04T08:39:18.562Z,15.4
2017-09-04T08:40:17.747Z,15.4
2017-09-04T08:41:16.929Z,15.3
2017-09-04T08:42:16.364Z,15.4
2017-09-04T08:43:15.680Z,15.4
2017-09-04T08:44:14.986Z,15.4
2017-09-04T08:45:14.297Z,15.5
2017-09-04T08:46:13.241Z,15.5
2017-09-04T08:47:12.298Z,15.5
2017-09-04T08:48:11.857Z,15.5
2017-09-04T08:49:11.288Z,15.5
2017-09-04T08:50:10.348Z,15.5
2017-09-04T08:51:09.160Z,15.5
2017-09-04T08:52:08.725Z,15.6
2017-09-04T08:53:07.912Z,15.6
2017-09-04T08:54:07.219Z,15.7
2017-09-04T08:55:06.399Z,15.8
2017-09-04T08:56:05.710Z,15.9
2017-09-04T08:57:05.022Z,16
2017-09-04T08:58:04.580Z,16.1
2017-09-04T08:59:03.382Z,16.1
2017-09-04T09:00:02.573Z,16.2
2017-09-04T09:01:02.284Z,16.2
2017-09-04T09:02:00.961Z,16.2
2017-09-04T09:03:00.536Z,16.3
2017-09-04T09:03:59.965Z,16.3
2017-09-04T09:04:59.285Z,16.3
2017-09-04T09:05:58.357Z,16.3
2017-09-04T09:06:57.308Z,16.2
2017-09-04T09:09:55.029Z,16.2
2017-09-04T09:10:54.592Z,16.3
2017-09-04T09:11:53.907Z,16.3
2017-09-04T09:12:53.215Z,16.3
2017-09-04T09:13:52.160Z,16.4
2017-09-04T09:14:51.476Z,16.4
2017-09-04T09:15:50.658Z,16.4
2017-09-04T09:16:50.230Z,16.4
2017-09-04T09:17:49.038Z,16.4
2017-09-04T09:18:48.847Z,16.5
2017-09-04T09:19:48.025Z,16.5
2017-09-04T09:20:47.072Z,16.5
2017-09-04T09:21:46.629Z,16.5
2017-09-04T09:22:45.558Z,16.5
2017-09-04T09:23:44.873Z,16.5
2017-09-04T09:24:44.309Z,16.6
2017-09-04T09:25:43.492Z,16.6
2017-09-04T09:26:42.795Z,16.7
2017-09-04T09:27:41.982Z,16.8
2017-09-04T09:28:41.306Z,16.8
2017-09-04T09:29:40.601Z,16.9
2017-09-04T09:30:39.418Z,17
2017-09-04T09:31:39.100Z,17.1
2017-09-04T09:32:38.024Z,17.2
2017-09-04T09:33:37.445Z,17.2
2017-09-04T09:34:36.875Z,17.2
2017-09-04T09:35:36.059Z,17.3
2017-09-04T09:36:35.487Z,17.3
2017-09-04T09:37:34.813Z,17.3
2017-09-04T09:38:34.129Z,17.3
2017-09-04T09:39:33.061Z,17.4
2017-09-04T09:40:32.645Z,17.3
2017-09-04T09:41:31.955Z,17.3
2017-09-04T09:42:31.266Z,17.3
2017-09-04T09:43:30.328Z,17.2
2017-09-04T09:44:29.904Z,17.2
2017-09-04T09:45:28.982Z,17.2
2017-09-04T09:46:28.422Z,17.2
2017-09-04T09:47:27.235Z,17.3
2017-09-04T09:48:26.935Z,17.5
2017-09-04T09:49:25.732Z,17.6
2017-09-04T09:50:25.156Z,17.6
2017-09-04T09:51:24.715Z,17.6
2017-09-04T09:52:24.023Z,17.7
2017-09-04T09:53:23.089Z,17.6
2017-09-04T09:54:22.397Z,17.7
2017-09-04T09:55:21.709Z,17.9
2017-09-04T09:56:21.019Z,18
2017-09-04T09:57:20.439Z,18
2017-09-04T09:58:19.759Z,17.9
2017-09-04T09:59:18.941Z,17.9
2017-09-04T10:00:18.015Z,17.9
2017-09-04T10:01:17.312Z,17.9
2017-09-04T10:02:16.757Z,17.9
2017-09-04T10:03:15.940Z,17.9
2017-09-04T10:04:15.118Z,17.8
2017-09-04T10:05:15.025Z,18
2017-09-04T10:06:13.841Z,17.9
2017-09-04T10:07:13.270Z,17.9
2017-09-04T10:08:12.459Z,17.9
2017-09-04T10:09:11.895Z,18
2017-09-04T10:10:11.200Z,18
2017-09-04T10:11:10.637Z,18.1
2017-09-04T10:12:09.569Z,18.3
2017-09-04T10:13:09.120Z,18.3
2017-09-04T10:14:07.912Z,18.3
2017-09-04T10:15:07.850Z,18.3
2017-09-04T10:16:06.763Z,18.3
2017-09-04T10:17:06.205Z,18.3
2017-09-04T10:18:05.768Z,18.2
2017-09-04T10:19:04.704Z,18.1
2017-09-04T10:20:04.266Z,18.1
2017-09-04T10:21:03.699Z,18.1
2017-09-04T10:22:02.503Z,18.2
2017-09-04T10:23:02.316Z,18.3
2017-09-04T10:24:01.124Z,18.4
2017-09-04T10:25:00.437Z,18.4
2017-09-04T10:26:00.122Z,18.4
2017-09-04T10:26:59.558Z,18.4
2017-09-04T10:27:58.358Z,18.4
2017-09-04T10:28:57.671Z,18.4
2017-09-04T10:29:57.383Z,18.4
2017-09-04T10:30:56.823Z,18.4
2017-09-04T10:32:55.264Z,18.4
2017-09-04T10:33:54.308Z,18.4
2017-09-04T10:34:53.877Z,18.4
2017-09-04T10:35:52.805Z,18.4
2017-09-04T10:36:52.484Z,18.3
2017-09-04T10:37:51.670Z,18.2
2017-09-04T10:38:51.103Z,18.2
2017-09-04T10:39:49.898Z,18.1
2017-09-04T10:40:49.708Z,18.1
2017-09-04T10:41:49.020Z,18.1
2017-09-04T10:42:48.458Z,18
2017-09-04T10:43:47.889Z,18
2017-09-04T10:44:47.053Z,18
2017-09-04T10:45:46.115Z,18.1
2017-09-04T10:46:45.426Z,18.1
2017-09-04T10:47:44.856Z,18.1
2017-09-04T10:49:43.808Z,18.2
2017-09-04T10:50:42.500Z,18.3
2017-09-04T10:51:41.932Z,18.3
2017-09-04T10:52:41.240Z,18.3
2017-09-04T10:53:40.682Z,18.3
2017-09-04T10:54:40.128Z,18.2
2017-09-04T10:55:39.443Z,18.2
2017-09-04T10:56:38.743Z,18.2
2017-09-04T10:57:38.047Z,18.2
2017-09-04T10:58:36.977Z,18.2
2017-09-04T10:59:36.665Z,18.2
2017-09-04T11:00:35.721Z,18.2
2017-09-04T11:01:35.282Z,18.1
2017-09-04T11:02:34.466Z,18.1
2017-09-04T11:03:33.897Z,18.1
2017-09-04T11:04:32.962Z,18.2
2017-09-04T11:05:32.530Z,18.2
2017-09-04T11:07:31.095Z,18.2
2017-09-04T11:08:30.282Z,18.2
2017-09-04T11:09:29.603Z,18.3
2017-09-04T11:10:29.050Z,18.4
2017-09-04T11:11:28.617Z,18.5
2017-09-04T11:12:27.930Z,18.6
2017-09-04T11:13:27.249Z,18.7
2017-09-04T11:14:26.315Z,18.7
2017-09-04T11:15:25.996Z,18.8
2017-09-04T11:16:25.299Z,18.9
2017-09-04T11:17:24.354Z,18.9
2017-09-04T11:17:55.234Z,18.9
2017-09-04T11:18:25.604Z,18.9
2017-09-04T11:18:55.836Z,18.9
2017-09-04T11:19:26.460Z,18.9
2017-09-04T11:20:22.245Z,18.8
2017-09-04T11:21:21.924Z,18.8
2017-09-04T11:22:21.218Z,18.8
2017-09-04T11:23:20.150Z,18.7
2017-09-04T11:24:19.715Z,18.7
2017-09-04T11:25:19.164Z,18.7
2017-09-04T11:26:18.329Z,18.6
2017-09-04T11:27:17.639Z,18.6
2017-09-04T11:28:16.821Z,18.6
2017-09-04T11:29:16.249Z,18.5
2017-09-04T11:30:15.429Z,18.5
2017-09-04T11:31:14.729Z,18.5
2017-09-04T11:32:14.284Z,18.6
2017-09-04T11:33:13.590Z,18.7
2017-09-04T11:34:13.026Z,18.8
2017-09-04T11:35:12.458Z,18.9
2017-09-04T11:36:11.386Z,19
2017-09-04T11:37:10.699Z,19.1
2017-09-04T11:38:10.138Z,19.1
2017-09-04T11:39:09.577Z,19.1
2017-09-04T11:40:09.131Z,19.1
2017-09-04T11:41:08.564Z,19.2
2017-09-04T11:42:07.361Z,19.2
2017-09-04T11:43:06.661Z,19.2
2017-09-04T11:44:06.466Z,19.3
2017-09-04T11:45:05.906Z,19.3
2017-09-04T11:46:05.082Z,19.3
2017-09-04T11:47:04.503Z,19.3
2017-09-04T11:48:03.943Z,19.5
2017-09-04T11:49:02.870Z,19.5
2017-09-04T11:50:02.058Z,19.5
2017-09-04T11:51:01.764Z,19.6
2017-09-04T11:52:00.955Z,19.6
2017-09-04T11:53:00.655Z,19.6
2017-09-04T11:53:59.825Z,19.7
2017-09-04T11:54:59.382Z,19.7
2017-09-04T11:55:58.318Z,19.8
2017-09-04T11:56:57.742Z,19.8
2017-09-04T11:57:57.173Z,19.8
2017-09-04T11:58:56.103Z,19.9
2017-09-04T11:59:55.906Z,19.8
2017-09-04T12:00:55.218Z,19.8
2017-09-04T12:01:54.651Z,19.7
2017-09-04T12:02:53.586Z,19.7
2017-09-04T12:03:53.022Z,19.5
2017-09-04T12:04:52.571Z,19.4
2017-09-04T12:06:51.427Z,19.4
2017-09-04T12:07:50.233Z,19.4
2017-09-04T12:08:49.782Z,19.3
2017-09-04T12:09:49.220Z,19.2
2017-09-04T12:10:48.520Z,19.2
2017-09-04T12:11:47.840Z,19.2
2017-09-04T12:12:18.596Z,19.2
2017-09-04T12:12:48.976Z,19.2
2017-09-04T12:13:46.898Z,19.2
2017-09-04T12:14:46.082Z,19.2
2017-09-04T12:15:45.505Z,19.1
2017-09-04T12:16:44.942Z,19.1
2017-09-04T12:17:44.003Z,19.1
2017-09-04T12:18:43.434Z,19.1
2017-09-04T12:19:42.735Z,19.1
2017-09-04T12:20:41.912Z,19.1
2017-09-04T12:21:41.224Z,19.1
2017-09-04T12:22:40.779Z,19.1
2017-09-04T12:23:39.950Z,19.1
2017-09-04T12:24:39.252Z,19.1
2017-09-04T12:25:38.560Z,19.1
2017-09-04T12:26:38.244Z,19.1
2017-09-04T12:27:37.425Z,19.1
2017-09-04T12:28:36.721Z,19.1
2017-09-04T12:29:36.406Z,19.1
2017-09-04T12:30:35.729Z,19
2017-09-04T12:31:35.044Z,19
2017-09-04T12:32:34.465Z,19.1
2017-09-04T12:33:33.399Z,19.1
2017-09-04T12:34:32.823Z,19.1
2017-09-04T12:35:32.257Z,19.1
2017-09-04T12:36:31.568Z,19.1
2017-09-04T12:37:30.754Z,19.1
2017-09-04T12:38:30.351Z,19.1
2017-09-04T12:39:29.913Z,19.2
2017-09-04T12:40:29.234Z,19.1
2017-09-04T12:41:28.676Z,19.1
2017-09-04T12:43:27.121Z,19.1
2017-09-04T12:44:26.560Z,19.1
2017-09-04T12:45:26.002Z,19.2
2017-09-04T12:46:24.925Z,19.2
2017-09-04T12:47:24.354Z,19.2
2017-09-04T12:48:23.917Z,19.2
2017-09-04T12:49:23.479Z,19.2
2017-09-04T12:50:22.165Z,19.2
2017-09-04T12:51:21.603Z,19.1
2017-09-04T12:52:21.158Z,19.1
2017-09-04T12:53:20.482Z,19.3
2017-09-04T12:54:19.668Z,19.4
2017-09-04T12:55:19.482Z,19.6
2017-09-04T12:56:18.944Z,19.8
2017-09-04T12:57:18.008Z,19.9
2017-09-04T12:58:17.431Z,20.1
2017-09-04T12:59:16.758Z,20.2
2017-09-04T13:00:16.186Z,20.3
2017-09-04T13:01:14.994Z,20.4
2017-09-04T13:02:14.800Z,20.4
2017-09-04T13:03:14.368Z,20.5
2017-09-04T13:04:13.046Z,20.5
2017-09-04T13:05:12.607Z,20.3
2017-09-04T13:06:11.915Z,20.3
2017-09-04T13:07:11.610Z,20.4
2017-09-04T13:08:10.913Z,20.4
2017-09-04T13:08:41.529Z,20.4
2017-09-04T13:09:11.900Z,20.4
2017-09-04T13:10:09.208Z,20.2
2017-09-04T13:11:08.896Z,20.2
2017-09-04T13:12:08.329Z,20.2
2017-09-04T13:13:07.899Z,20.3
2017-09-04T13:14:07.072Z,20.2
2017-09-04T13:15:06.388Z,20.1
2017-09-04T13:16:05.814Z,20.2
2017-09-04T13:17:04.862Z,20.4
2017-09-04T13:18:04.549Z,20.6
2017-09-04T13:19:03.728Z,20.6
2017-09-04T13:20:03.287Z,20.8
2017-09-04T13:21:02.595Z,20.9
2017-09-04T13:22:01.924Z,20.9
2017-09-04T13:23:01.231Z,20.9
2017-09-04T13:24:00.792Z,21
2017-09-04T13:25:00.096Z,21
2017-09-04T13:25:59.519Z,21.1
2017-09-04T13:26:58.834Z,21.2
2017-09-04T13:27:58.401Z,21.3
2017-09-04T13:28:57.332Z,21.2
2017-09-04T13:29:57.149Z,21.3
2017-09-04T13:30:56.331Z,21.4
2017-09-04T13:31:55.633Z,21.4
2017-09-04T13:33:54.327Z,21.4
2017-09-04T13:34:54.136Z,21.6
2017-09-04T13:35:53.065Z,21.7
2017-09-04T13:36:52.375Z,21.7
2017-09-04T13:37:52.070Z,21.6
2017-09-04T13:38:51.128Z,21.5
2017-09-04T13:39:50.939Z,21.5
2017-09-04T13:40:49.996Z,21.5
2017-09-04T13:41:49.175Z,21.4
2017-09-04T13:42:48.862Z,21.4
2017-09-04T13:43:48.164Z,21.5
2017-09-04T13:44:47.610Z,21.5
2017-09-04T13:45:46.924Z,21.4
2017-09-04T13:46:46.100Z,21.4
2017-09-04T13:47:45.543Z,21.5
2017-09-04T13:48:45.359Z,21.7
2017-09-04T13:49:44.800Z,21.5
2017-09-04T13:50:43.736Z,21.6
2017-09-04T13:51:43.545Z,21.4
2017-09-04T13:52:43.138Z,21.3
2017-09-04T13:53:41.953Z,21.3
2017-09-04T13:54:41.635Z,21.2
2017-09-04T13:55:40.935Z,21.1
2017-09-04T13:56:40.365Z,21.1
2017-09-04T13:57:39.423Z,21
2017-09-04T13:58:39.115Z,21